Time;durP1;ratioP1;P1;durP2;ratioP2;P2;SDS_P1;SDS_P2;PMS_P1;PMS_P2;Temp;Humidity;BMP_temperature;BMP_pressure;BME280_temperature;BME280_humidity;BME280_pressure;Samples;Min_cycle;Max_cycle;Signal;HPM_P1;HPM_P2
2024/04/07 00:02:16;;;;;;;4.07;2.33;;;12.90;99.90;;;;;;5040399;28;20013;-60
2024/04/07 00:04:41;;;;;;;4.38;1.90;;;12.80;99.90;;;;;;5040379;28;20078;-60
2024/04/07 00:07:07;;;;;;;2.50;2.05;;;12.80;99.90;;;;;;5041743;28;20490;-60
2024/04/07 00:09:33;;;;;;;3.22;2.35;;;12.70;99.90;;;;;;5040082;28;20067;-61
2024/04/07 00:12:01;;;;;;;3.15;2.25;;;12.70;99.90;;;;;;5040388;28;20074;-61
2024/04/07 00:14:28;;;;;;;3.63;2.10;;;12.60;99.90;;;;;;5039899;28;20025;-61
2024/04/07 00:16:53;;;;;;;6.22;2.50;;;12.60;99.90;;;;;;5039956;28;20025;-60
2024/04/07 00:19:19;;;;;;;5.88;2.42;;;12.60;99.90;;;;;;5039759;28;20032;-61
2024/04/07 00:21:45;;;;;;;4.50;2.15;;;12.60;99.90;;;;;;5041664;28;20380;-61
2024/04/07 00:24:10;;;;;;;6.28;2.55;;;12.50;99.90;;;;;;5040065;28;20278;-61
2024/04/07 00:26:35;;;;;;;2.33;2.13;;;12.50;99.90;;;;;;5040016;28;20579;-60
2024/04/07 00:29:02;;;;;;;4.20;2.78;;;12.40;99.90;;;;;;5039667;28;20028;-60
2024/04/07 00:31:28;;;;;;;3.53;2.50;;;12.40;99.90;;;;;;5039888;28;20025;-60
2024/04/07 00:33:53;;;;;;;4.00;2.42;;;12.40;99.90;;;;;;5039587;28;20045;-60
2024/04/07 00:36:19;;;;;;;4.07;2.75;;;12.40;99.90;;;;;;5041304;28;20037;-60
2024/04/07 00:38:44;;;;;;;2.50;2.20;;;12.40;99.90;;;;;;5033855;28;20025;-63
2024/04/07 00:41:10;;;;;;;2.55;2.20;;;12.50;99.90;;;;;;5039579;28;20575;-61
2024/04/07 00:43:37;;;;;;;2.92;2.33;;;12.50;99.90;;;;;;5039404;28;20509;-61
2024/04/07 00:46:03;;;;;;;4.50;2.85;;;12.60;99.90;;;;;;5039478;28;20493;-61
2024/04/07 00:48:29;;;;;;;3.53;2.72;;;12.60;99.90;;;;;;5038995;28;20116;-60
2024/04/07 00:50:55;;;;;;;6.63;4.05;;;12.70;99.90;;;;;;5039371;28;20052;-60
2024/04/07 00:53:21;;;;;;;5.38;3.38;;;12.80;99.90;;;;;;5037232;28;20264;-60
2024/04/07 00:55:47;;;;;;;5.55;3.20;;;12.80;99.90;;;;;;5034938;28;20033;-60
2024/04/07 00:58:15;;;;;;;3.20;2.53;;;12.80;99.90;;;;;;5035166;28;20028;-60
2024/04/07 01:00:44;;;;;;;6.60;2.92;;;12.80;99.90;;;;;;5031235;28;20108;-61
2024/04/07 01:03:10;;;;;;;5.25;3.10;;;12.80;99.90;;;;;;5036783;28;20029;-61
2024/04/07 01:05:47;;;;;;;6.15;2.80;;;12.80;99.90;;;;;;5033070;28;20508;-61
2024/04/07 01:08:14;;;;;;;3.38;2.60;;;12.80;99.90;;;;;;5030943;28;20056;-61
2024/04/07 01:10:40;;;;;;;3.35;2.40;;;12.80;99.90;;;;;;5030411;28;20170;-60
2024/04/07 01:13:07;;;;;;;3.75;2.67;;;12.90;99.90;;;;;;5054314;28;20489;-61
2024/04/07 01:15:37;;;;;;;4.13;2.30;;;12.90;99.90;;;;;;5034801;28;20029;-60
2024/04/07 01:18:05;;;;;;;3.17;2.25;;;12.90;99.90;;;;;;5038695;28;20025;-60
2024/04/07 01:20:32;;;;;;;3.78;2.30;;;12.90;99.90;;;;;;5035088;28;20405;-59
2024/04/07 01:22:58;;;;;;;3.15;2.45;;;12.90;99.90;;;;;;5036756;28;20028;-60
2024/04/07 01:25:24;;;;;;;5.47;2.50;;;12.90;99.90;;;;;;5035041;28;20027;-60
2024/04/07 01:27:55;;;;;;;3.22;2.17;;;12.90;99.90;;;;;;5038872;28;20063;-60
2024/04/07 01:30:22;;;;;;;4.07;2.35;;;12.90;99.90;;;;;;5038694;28;20028;-60
2024/04/07 01:32:48;;;;;;;4.28;2.60;;;12.90;99.90;;;;;;5039291;28;20512;-60
2024/04/07 01:35:14;;;;;;;4.70;2.83;;;12.90;99.90;;;;;;5030599;28;20798;-60
2024/04/07 01:37:40;;;;;;;3.30;2.53;;;12.90;99.90;;;;;;5034205;28;20081;-60
2024/04/07 01:40:08;;;;;;;4.25;2.13;;;12.90;99.90;;;;;;5030129;28;20036;-61
2024/04/07 01:42:35;;;;;;;4.70;2.83;;;12.90;99.90;;;;;;5032694;28;20032;-60
2024/04/07 01:45:04;;;;;;;4.20;2.88;;;12.90;99.90;;;;;;5035449;28;20009;-60
2024/04/07 01:47:30;;;;;;;8.48;3.13;;;12.90;99.90;;;;;;5034576;28;20107;-60
2024/04/07 01:49:56;;;;;;;4.13;3.00;;;12.90;99.90;;;;;;5038680;28;20700;-62
2024/04/07 01:52:21;;;;;;;3.88;2.40;;;12.90;99.90;;;;;;5038868;28;20585;-60
2024/04/07 01:54:47;;;;;;;3.55;2.42;;;12.90;99.90;;;;;;5030216;28;20030;-60
2024/04/07 01:57:12;;;;;;;2.38;2.17;;;12.90;99.90;;;;;;5038423;28;20404;-60
2024/04/07 01:59:38;;;;;;;4.03;2.63;;;13.00;99.90;;;;;;5038609;28;20040;-60
2024/04/07 02:02:04;;;;;;;4.25;2.58;;;12.90;99.90;;;;;;5036258;28;20029;-61
2024/04/07 02:04:29;;;;;;;4.10;2.70;;;12.90;99.90;;;;;;5038597;28;20044;-60
2024/04/07 02:06:55;;;;;;;3.85;2.78;;;12.90;99.90;;;;;;5038643;28;20110;-60
2024/04/07 02:09:21;;;;;;;4.32;2.65;;;12.90;99.90;;;;;;5038274;28;20032;-60
2024/04/07 02:11:47;;;;;;;4.32;2.88;;;12.90;99.90;;;;;;5038460;28;20036;-60
2024/04/07 02:14:12;;;;;;;6.03;2.70;;;13.00;99.90;;;;;;5040030;28;20033;-60
2024/04/07 02:16:38;;;;;;;3.35;2.55;;;13.00;99.90;;;;;;5042710;28;20076;-61
2024/04/07 02:19:03;;;;;;;3.85;2.75;;;13.00;99.90;;;;;;5042522;28;20059;-60
2024/04/07 02:21:29;;;;;;;6.10;3.17;;;13.00;99.90;;;;;;5042768;28;20025;-60
2024/04/07 02:23:54;;;;;;;4.22;2.75;;;13.10;99.90;;;;;;5041907;28;20086;-61
2024/04/07 02:26:21;;;;;;;4.97;3.25;;;13.10;99.90;;;;;;5041895;28;20481;-60
2024/04/07 02:28:47;;;;;;;8.13;3.53;;;13.10;99.90;;;;;;5042428;28;20090;-59
2024/04/07 02:31:12;;;;;;;4.50;3.13;;;13.20;99.90;;;;;;5043723;28;20013;-61
2024/04/07 02:33:38;;;;;;;4.78;2.97;;;13.20;99.90;;;;;;5042080;28;20079;-61
2024/04/07 02:36:06;;;;;;;4.10;2.95;;;13.20;99.90;;;;;;5033878;28;20025;-60
2024/04/07 02:38:31;;;;;;;3.70;2.78;;;13.20;99.90;;;;;;5035376;28;20535;-61
2024/04/07 02:40:57;;;;;;;2.78;2.33;;;13.20;99.90;;;;;;5042358;28;20021;-61
2024/04/07 02:43:23;;;;;;;4.88;3.13;;;13.20;99.90;;;;;;5041967;28;20060;-60
2024/04/07 02:48:32;;;;;;;3.60;2.72;;;13.10;99.90;;;;;;5039901;28;20059;-61
2024/04/07 02:50:58;;;;;;;6.03;2.92;;;13.10;99.90;;;;;;5042115;28;20116;-60
2024/04/07 02:53:24;;;;;;;4.40;3.08;;;13.10;99.90;;;;;;5047754;28;20724;-60
2024/04/07 02:55:49;;;;;;;5.47;3.30;;;13.10;99.90;;;;;;5039322;28;20096;-61
2024/04/07 02:58:15;;;;;;;3.78;2.80;;;13.00;99.90;;;;;;5049995;28;20029;-60
2024/04/07 03:00:40;;;;;;;5.60;3.20;;;13.00;99.90;;;;;;5037114;28;20123;-60
2024/04/07 03:03:06;;;;;;;3.92;3.17;;;12.90;99.90;;;;;;5037323;28;20112;-60
2024/04/07 03:05:31;;;;;;;5.68;3.47;;;13.00;99.90;;;;;;5037684;28;20029;-60
2024/04/07 03:07:57;;;;;;;5.95;2.92;;;13.00;99.90;;;;;;5041788;28;20104;-60
2024/04/07 03:10:22;;;;;;;5.43;3.20;;;12.90;99.90;;;;;;5040949;28;20071;-60
2024/04/07 03:12:48;;;;;;;5.22;2.97;;;12.90;99.90;;;;;;5043540;28;20036;-60
2024/04/07 03:15:13;;;;;;;5.32;3.38;;;12.90;99.90;;;;;;5041465;28;20424;-60
2024/04/07 03:17:39;;;;;;;5.47;3.30;;;12.90;99.90;;;;;;5041032;28;20454;-61
2024/04/07 03:20:06;;;;;;;5.20;3.50;;;12.90;99.90;;;;;;5041347;28;20106;-60
2024/04/07 03:22:31;;;;;;;3.17;2.65;;;12.90;99.90;;;;;;5041310;28;20100;-60
2024/04/07 03:24:57;;;;;;;4.10;2.75;;;12.90;99.90;;;;;;5040549;28;20108;-60
2024/04/07 03:27:22;;;;;;;5.65;3.20;;;12.90;99.90;;;;;;5043086;28;20491;-60
2024/04/07 03:29:48;;;;;;;3.63;3.08;;;12.90;99.90;;;;;;5041099;28;20083;-61
2024/04/07 03:32:13;;;;;;;5.60;2.80;;;12.90;99.90;;;;;;5040764;28;20711;-61
2024/04/07 03:34:39;;;;;;;5.47;3.05;;;12.90;99.90;;;;;;5041114;28;20021;-61
2024/04/07 03:37:04;;;;;;;4.70;3.13;;;12.80;99.90;;;;;;5040833;28;20083;-60
2024/04/07 03:39:30;;;;;;;4.45;2.78;;;12.80;99.90;;;;;;5036345;28;20029;-60
2024/04/07 03:41:56;;;;;;;5.20;2.60;;;12.80;99.90;;;;;;5053985;28;20116;-61
2024/04/07 03:44:22;;;;;;;7.00;3.58;;;12.80;99.90;;;;;;5044179;28;20112;-60
2024/04/07 03:46:48;;;;;;;4.80;3.08;;;12.70;99.90;;;;;;5040514;28;20489;-60
2024/04/07 03:49:14;;;;;;;5.03;3.17;;;12.80;99.90;;;;;;5040822;28;20032;-61
2024/04/07 03:51:39;;;;;;;3.80;2.53;;;12.70;99.90;;;;;;5040669;28;20389;-60
2024/04/07 03:54:05;;;;;;;4.85;3.00;;;12.70;99.90;;;;;;5040455;28;20131;-56
2024/04/07 03:56:30;;;;;;;5.60;3.22;;;12.70;99.90;;;;;;5038360;28;20041;-61
2024/04/07 03:58:56;;;;;;;3.92;2.72;;;12.70;99.90;;;;;;5052083;28;20032;-61
2024/04/07 04:01:22;;;;;;;3.63;3.05;;;12.70;99.90;;;;;;5031958;28;20051;-61
2024/04/07 04:03:47;;;;;;;4.63;3.10;;;12.70;99.90;;;;;;5032410;28;20393;-61
2024/04/07 04:06:14;;;;;;;4.72;3.30;;;12.70;99.90;;;;;;5040184;28;20044;-60
2024/04/07 04:08:39;;;;;;;5.38;3.20;;;12.70;99.90;;;;;;5040017;28;20033;-61
2024/04/07 04:11:06;;;;;;;5.15;2.92;;;12.70;99.90;;;;;;5036057;28;20135;-61
2024/04/07 04:13:35;;;;;;;3.65;2.72;;;12.70;99.90;;;;;;5035860;28;20100;-61
2024/04/07 04:16:01;;;;;;;3.85;2.38;;;12.80;99.90;;;;;;5037611;28;20029;-61
2024/04/07 04:18:27;;;;;;;5.57;2.70;;;12.60;99.90;;;;;;5031590;28;20051;-62
2024/04/07 04:20:53;;;;;;;3.72;3.03;;;12.60;99.90;;;;;;5032484;28;20505;-61
2024/04/07 04:23:18;;;;;;;3.20;2.58;;;12.50;99.90;;;;;;5033312;28;20029;-61
2024/04/07 04:25:54;;;;;;;4.85;2.88;;;12.40;99.90;;;;;;5031358;28;20022;-61
2024/04/07 04:28:21;;;;;;;3.22;2.65;;;12.40;99.90;;;;;;5039795;28;20025;-61
2024/04/07 04:31:07;;;;;;;4.00;2.95;;;12.30;99.90;;;;;;5040095;28;20137;-61
2024/04/07 04:33:33;;;;;;;3.90;2.47;;;12.20;99.90;;;;;;5037878;28;20044;-62
2024/04/07 04:35:59;;;;;;;3.17;2.72;;;12.20;99.90;;;;;;5039607;28;20045;-61
2024/04/07 04:38:24;;;;;;;5.43;2.75;;;12.20;99.90;;;;;;5038915;28;20495;-61
2024/04/07 04:40:54;;;;;;;3.45;2.67;;;12.10;99.90;;;;;;5033976;28;20037;-61
2024/04/07 04:43:20;;;;;;;4.28;2.72;;;12.10;99.90;;;;;;5035232;28;20532;-63
2024/04/07 04:45:48;;;;;;;5.05;2.70;;;12.00;99.90;;;;;;5039687;28;20104;-63
2024/04/07 04:48:13;;;;;;;3.40;2.60;;;12.00;99.90;;;;;;5039358;28;20025;-63
2024/04/07 04:50:39;;;;;;;3.35;2.58;;;12.00;99.90;;;;;;5039968;28;20436;-61
2024/04/07 04:53:04;;;;;;;5.18;2.75;;;12.00;99.90;;;;;;5039593;28;20104;-61
2024/04/07 04:55:32;;;;;;;5.78;3.33;;;12.10;99.90;;;;;;5039243;28;20374;-61
2024/04/07 04:57:57;;;;;;;2.78;2.47;;;12.20;99.90;;;;;;5039431;28;20033;-61
2024/04/07 05:00:23;;;;;;;4.57;3.20;;;12.30;99.90;;;;;;5039358;28;20028;-61
2024/04/07 05:02:48;;;;;;;3.53;2.75;;;12.50;99.90;;;;;;5039324;28;20028;-61
2024/04/07 05:05:14;;;;;;;4.03;2.78;;;12.70;99.90;;;;;;5039407;28;20021;-59
2024/04/07 05:07:40;;;;;;;3.40;2.47;;;12.80;99.90;;;;;;5036796;28;20036;-61
2024/04/07 05:10:05;;;;;;;5.20;2.85;;;13.00;99.90;;;;;;5038601;28;20103;-61
2024/04/07 05:12:31;;;;;;;3.05;2.63;;;13.20;99.90;;;;;;5039696;28;20442;-61
2024/04/07 05:14:56;;;;;;;3.65;3.08;;;13.30;99.90;;;;;;5038854;28;20095;-61
2024/04/07 05:17:23;;;;;;;7.07;3.80;;;13.50;99.60;;;;;;5035137;28;20028;-61
2024/04/07 05:19:51;;;;;;;3.95;2.83;;;13.70;98.20;;;;;;5039168;28;20040;-61
2024/04/07 05:22:17;;;;;;;4.82;2.67;;;13.90;97.10;;;;;;5038712;28;20037;-61
2024/04/07 05:24:43;;;;;;;2.97;2.67;;;14.00;96.10;;;;;;5034807;28;20763;-61
2024/04/07 05:27:09;;;;;;;6.72;2.78;;;14.10;95.70;;;;;;5040942;28;20039;-61
2024/04/07 05:29:34;;;;;;;6.95;3.28;;;14.30;95.00;;;;;;5034409;28;20576;-61
2024/04/07 05:32:00;;;;;;;5.05;2.80;;;14.40;94.40;;;;;;5046077;28;20030;-61
2024/04/07 05:34:27;;;;;;;6.28;3.15;;;14.50;93.80;;;;;;5038689;28;20021;-61
2024/04/07 05:36:52;;;;;;;4.43;2.67;;;14.50;92.70;;;;;;5038418;28;20448;-61
2024/04/07 05:39:18;;;;;;;5.18;2.97;;;14.70;91.90;;;;;;5029284;28;20525;-60
2024/04/07 05:41:43;;;;;;;3.53;2.40;;;14.90;91.70;;;;;;5040255;28;20021;-61
2024/04/07 05:44:09;;;;;;;4.38;2.55;;;15.00;90.80;;;;;;5030662;28;20379;-61
2024/04/07 05:46:34;;;;;;;4.95;2.65;;;15.10;90.60;;;;;;5049532;28;20299;-62
2024/04/07 05:49:00;;;;;;;3.70;2.40;;;15.20;90.10;;;;;;5038379;28;20107;-61
2024/04/07 05:51:25;;;;;;;4.22;2.30;;;15.30;89.20;;;;;;5038775;28;20120;-61
2024/04/07 05:53:51;;;;;;;6.05;2.63;;;15.30;87.80;;;;;;5038815;28;20033;-61
2024/04/07 05:56:18;;;;;;;3.10;2.10;;;15.40;88.00;;;;;;5040323;28;20155;-61
2024/04/07 05:58:43;;;;;;;5.07;2.53;;;15.50;86.70;;;;;;5038550;28;20587;-62
2024/04/07 06:01:09;;;;;;;3.30;2.50;;;15.80;86.30;;;;;;5038224;28;20060;-61
2024/04/07 06:03:34;;;;;;;3.88;2.25;;;16.00;85.30;;;;;;5030454;28;20029;-61
2024/04/07 06:06:02;;;;;;;4.15;2.33;;;16.20;83.90;;;;;;5034107;28;20024;-61
2024/04/07 06:08:27;;;;;;;4.43;2.17;;;16.40;82.90;;;;;;5038153;28;20036;-61
2024/04/07 06:10:53;;;;;;;2.58;2.05;;;16.50;82.20;;;;;;5036081;28;20049;-61
2024/04/07 06:13:18;;;;;;;2.75;2.20;;;16.70;81.50;;;;;;5038358;28;20025;-60
2024/04/07 06:15:44;;;;;;;3.60;2.05;;;17.10;80.20;;;;;;5038139;28;20044;-61
2024/04/07 06:18:09;;;;;;;3.92;2.08;;;17.30;80.00;;;;;;5038463;28;20052;-61
2024/04/07 06:20:35;;;;;;;2.88;2.58;;;17.70;77.70;;;;;;5038072;28;20044;-61
2024/04/07 06:23:00;;;;;;;3.22;2.22;;;18.40;76.50;;;;;;5038416;28;20452;-61
2024/04/07 06:25:26;;;;;;;2.53;1.90;;;18.70;72.60;;;;;;5039968;28;20021;-61
2024/04/07 06:27:51;;;;;;;2.70;2.15;;;18.90;72.90;;;;;;5038018;28;20029;-61
2024/04/07 06:30:16;;;;;;;2.95;2.25;;;18.90;73.30;;;;;;5038552;28;20032;-61
2024/04/07 06:32:42;;;;;;;3.10;2.03;;;19.10;72.90;;;;;;5037989;28;20021;-61
2024/04/07 06:35:08;;;;;;;2.20;1.88;;;19.80;71.80;;;;;;5034302;28;20051;-61
2024/04/07 06:37:33;;;;;;;4.28;1.90;;;20.50;71.00;;;;;;5038493;28;20033;-61
2024/04/07 06:40:00;;;;;;;3.38;1.90;;;21.20;69.90;;;;;;5033686;28;20110;-61
2024/04/07 06:42:30;;;;;;;3.78;1.90;;;21.80;67.90;;;;;;5038939;28;20037;-61
2024/04/07 06:44:56;;;;;;;2.22;1.80;;;22.50;66.40;;;;;;5038470;28;20147;-61
2024/04/07 06:47:23;;;;;;;1.65;1.40;;;23.20;65.00;;;;;;5029811;28;20029;-61
2024/04/07 06:49:52;;;;;;;2.50;1.60;;;23.60;63.40;;;;;;5032276;28;20481;-61
2024/04/07 06:52:19;;;;;;;2.13;1.67;;;24.30;60.90;;;;;;5032448;28;20025;-61
2024/04/07 06:54:44;;;;;;;2.53;1.65;;;24.90;60.30;;;;;;5029969;28;20025;-61
2024/04/07 06:57:12;;;;;;;1.92;1.52;;;25.60;58.40;;;;;;5033740;28;20037;-61
2024/04/07 06:59:37;;;;;;;2.50;1.50;;;26.20;56.10;;;;;;5038432;28;20114;-60
2024/04/07 07:02:03;;;;;;;2.05;1.67;;;26.60;51.50;;;;;;5043360;28;20065;-61
2024/04/07 07:04:29;;;;;;;5.35;1.90;;;26.90;49.50;;;;;;5041731;28;20485;-61
2024/04/07 07:06:55;;;;;;;3.67;2.28;;;26.90;46.50;;;;;;5041829;28;20056;-61
2024/04/07 07:09:20;;;;;;;3.60;2.00;;;27.00;43.80;;;;;;5041157;28;20104;-61
2024/04/07 07:11:46;;;;;;;2.83;1.90;;;26.90;41.50;;;;;;5057249;28;20029;-61
2024/04/07 07:14:11;;;;;;;1.80;1.52;;;26.60;39.40;;;;;;5041701;28;20071;-61
2024/04/07 07:16:37;;;;;;;3.42;1.85;;;26.80;38.70;;;;;;5041386;28;20029;-60
2024/04/07 07:19:02;;;;;;;2.83;1.40;;;26.90;38.20;;;;;;5043790;28;20519;-61
2024/04/07 07:21:28;;;;;;;1.40;1.30;;;27.10;37.60;;;;;;5032876;28;20034;-61
2024/04/07 07:23:53;;;;;;;1.30;1.20;;;27.30;35.80;;;;;;5035300;28;20393;-60
2024/04/07 07:26:19;;;;;;;2.80;1.58;;;27.20;34.90;;;;;;5034809;28;20035;-60
2024/04/07 07:28:44;;;;;;;2.75;1.42;;;27.30;33.70;;;;;;5037225;28;20036;-60
2024/04/07 07:31:10;;;;;;;4.50;1.60;;;27.20;32.20;;;;;;5039063;28;20392;-61
2024/04/07 07:33:35;;;;;;;2.05;1.45;;;27.10;31.40;;;;;;5032668;28;20035;-61
2024/04/07 07:36:00;;;;;;;2.25;1.73;;;27.00;30.20;;;;;;5041073;28;20044;-61
2024/04/07 07:38:26;;;;;;;1.70;1.50;;;27.30;29.40;;;;;;5040658;28;20033;-61
2024/04/07 07:40:52;;;;;;;1.50;1.40;;;27.70;29.00;;;;;;5034350;28;20112;-60
2024/04/07 07:43:17;;;;;;;3.28;1.48;;;28.20;28.00;;;;;;5041202;28;20328;-60
2024/04/07 07:45:49;;;;;;;3.90;1.70;;;28.30;27.20;;;;;;5042449;28;20048;-61
2024/04/07 07:48:14;;;;;;;2.90;1.90;;;28.20;25.50;;;;;;5038905;28;20170;-60
2024/04/07 07:50:41;;;;;;;2.53;1.58;;;27.90;25.20;;;;;;5040801;28;20549;-61
2024/04/07 07:53:07;;;;;;;2.25;1.55;;;27.90;24.70;;;;;;5040761;28;20017;-61
2024/04/07 07:55:32;;;;;;;2.22;1.55;;;28.00;25.20;;;;;;5040266;28;20106;-61
2024/04/07 07:57:58;;;;;;;1.50;1.40;;;28.20;25.50;;;;;;5040714;28;20035;-61
2024/04/07 08:00:25;;;;;;;2.17;1.52;;;28.40;24.30;;;;;;5040616;28;20533;-61
2024/04/07 08:02:52;;;;;;;2.72;1.30;;;28.50;24.10;;;;;;5042062;28;20108;-61
2024/04/07 08:05:21;;;;;;;2.63;1.20;;;28.60;23.40;;;;;;5038839;28;20017;-61
2024/04/07 08:07:46;;;;;;;2.92;1.30;;;28.70;22.70;;;;;;5038394;28;20033;-61
2024/04/07 08:10:12;;;;;;;2.33;1.30;;;28.90;22.40;;;;;;5039353;28;20040;-61
2024/04/07 08:12:40;;;;;;;2.55;1.55;;;29.20;22.20;;;;;;5039662;28;20095;-61
2024/04/07 08:15:06;;;;;;;1.20;1.10;;;29.30;21.50;;;;;;5036142;28;20516;-61
2024/04/07 08:17:31;;;;;;;2.58;1.20;;;29.20;20.90;;;;;;5039984;28;20031;-61
2024/04/07 08:19:57;;;;;;;1.50;1.40;;;29.30;20.60;;;;;;5040495;28;20132;-60
2024/04/07 08:22:22;;;;;;;3.15;1.40;;;29.30;20.30;;;;;;5040124;28;20484;-60
2024/04/07 08:24:48;;;;;;;1.40;1.23;;;29.50;20.10;;;;;;5041973;28;20021;-61
2024/04/07 08:27:13;;;;;;;2.03;1.45;;;29.50;19.60;;;;;;5040312;28;20029;-61
2024/04/07 08:29:39;;;;;;;2.85;1.35;;;29.50;19.00;;;;;;5039588;28;20037;-61
2024/04/07 08:32:06;;;;;;;1.90;1.70;;;29.30;18.30;;;;;;5039990;28;20044;-61
2024/04/07 08:34:31;;;;;;;1.92;1.52;;;29.10;18.10;;;;;;5039567;28;20036;-60
2024/04/07 08:36:57;;;;;;;1.73;1.35;;;29.20;17.80;;;;;;5039668;28;20037;-60
2024/04/07 08:39:22;;;;;;;2.20;1.35;;;29.30;17.80;;;;;;5034025;28;20051;-61
2024/04/07 08:41:48;;;;;;;3.75;1.58;;;29.40;17.30;;;;;;5039860;28;20029;-61
2024/04/07 08:44:13;;;;;;;5.57;1.50;;;29.50;17.00;;;;;;5039649;28;20052;-61
2024/04/07 08:46:40;;;;;;;2.20;1.40;;;29.70;16.90;;;;;;5039685;28;20056;-61
2024/04/07 08:49:07;;;;;;;3.45;1.40;;;30.00;16.80;;;;;;5039509;28;20024;-61
2024/04/07 08:51:35;;;;;;;1.98;1.40;;;30.40;16.70;;;;;;5039665;28;20033;-60
2024/04/07 08:54:03;;;;;;;1.65;1.27;;;30.70;16.20;;;;;;5040735;28;20055;-61
2024/04/07 08:56:29;;;;;;;2.33;1.27;;;31.10;16.10;;;;;;5035979;28;20083;-61
2024/04/07 08:58:57;;;;;;;1.33;1.23;;;31.50;15.60;;;;;;5039676;28;20025;-61
2024/04/07 09:01:31;;;;;;;3.00;1.30;;;31.60;15.00;;;;;;5031537;28;20079;-61
2024/04/07 09:03:59;;;;;;;2.75;1.27;;;31.90;14.40;;;;;;5038334;28;20108;-61
2024/04/07 09:06:27;;;;;;;2.50;1.58;;;31.80;13.70;;;;;;5035135;28;20024;-61
2024/04/07 09:08:54;;;;;;;4.70;1.50;;;32.00;13.60;;;;;;5031132;28;20043;-61
2024/04/07 09:11:20;;;;;;;6.95;1.80;;;31.90;13.50;;;;;;5039605;28;20459;-61
2024/04/07 09:13:45;;;;;;;1.40;1.20;;;31.90;12.60;;;;;;5039354;28;20021;-61
2024/04/07 09:16:11;;;;;;;2.55;1.35;;;32.10;12.30;;;;;;5039165;28;20091;-61
2024/04/07 09:18:37;;;;;;;1.77;1.38;;;32.40;11.60;;;;;;5039597;28;20021;-60
2024/04/07 09:21:02;;;;;;;1.55;1.30;;;32.20;10.70;;;;;;5040881;28;20104;-61
2024/04/07 09:23:28;;;;;;;2.55;1.27;;;32.00;10.00;;;;;;5038819;28;20542;-61
2024/04/07 09:25:53;;;;;;;2.13;1.48;;;31.70;10.00;;;;;;5039225;28;20033;-61
2024/04/07 09:28:20;;;;;;;2.55;1.48;;;31.40;9.70;;;;;;5038703;28;20053;-61
2024/04/07 09:30:45;;;;;;;3.13;1.30;;;31.00;9.60;;;;;;5039016;28;20037;-61
2024/04/07 09:33:12;;;;;;;1.83;1.40;;;30.80;9.30;;;;;;5039714;28;20104;-61
2024/04/07 09:35:38;;;;;;;2.55;1.13;;;31.10;9.20;;;;;;5032589;28;20025;-61
2024/04/07 09:38:04;;;;;;;2.10;1.40;;;31.30;9.10;;;;;;5034473;28;20544;-61
2024/04/07 09:40:31;;;;;;;2.53;1.42;;;31.30;9.00;;;;;;5034502;28;20056;-61
2024/04/07 09:42:59;;;;;;;3.38;1.38;;;31.00;8.60;;;;;;5034672;28;20017;-61
2024/04/07 09:45:25;;;;;;;2.70;1.00;;;30.80;8.30;;;;;;5039236;28;20477;-61
2024/04/07 09:47:58;;;;;;;2.35;1.48;;;30.50;8.20;;;;;;5034610;28;20022;-61
2024/04/07 09:50:40;;;;;;;1.73;1.27;;;30.70;8.20;;;;;;5037766;28;20020;-61
2024/04/07 09:53:17;;;;;;;3.72;1.42;;;30.50;8.20;;;;;;5034128;28;20488;-61
2024/04/07 09:55:46;;;;;;;4.20;1.13;;;30.40;7.60;;;;;;5031419;28;20520;-62
2024/04/07 09:58:13;;;;;;;2.33;1.30;;;30.50;8.30;;;;;;5029127;28;20033;-61
2024/04/07 10:00:38;;;;;;;4.35;1.60;;;30.40;8.10;;;;;;5034099;28;20024;-67
2024/04/07 10:03:04;;;;;;;5.32;1.40;;;30.20;8.10;;;;;;5030612;28;20445;-67
2024/04/07 10:05:30;;;;;;;2.22;1.40;;;30.10;8.10;;;;;;5034431;28;20032;-67
2024/04/07 10:07:57;;;;;;;5.95;1.42;;;29.60;8.00;;;;;;5034498;28;20025;-67
2024/04/07 10:10:25;;;;;;;3.75;1.23;;;29.50;8.30;;;;;;5038657;28;20037;-67
2024/04/07 10:12:52;;;;;;;2.20;1.27;;;29.50;8.60;;;;;;5040530;28;20064;-67
2024/04/07 10:15:19;;;;;;;4.43;1.50;;;29.40;9.20;;;;;;5036220;28;20020;-67
2024/04/07 10:17:44;;;;;;;2.83;1.45;;;29.20;8.70;;;;;;5038554;28;20484;-67
2024/04/07 10:20:12;;;;;;;3.95;1.52;;;29.20;8.90;;;;;;5031307;28;20532;-66
2024/04/07 10:22:38;;;;;;;1.98;1.33;;;29.00;9.00;;;;;;5033717;28;20029;-67
2024/04/07 10:25:05;;;;;;;2.28;1.40;;;28.70;9.00;;;;;;5038325;28;20056;-66
2024/04/07 10:27:31;;;;;;;4.45;1.52;;;28.70;9.20;;;;;;5038181;28;20029;-66
2024/04/07 10:29:58;;;;;;;4.30;1.77;;;28.70;9.30;;;;;;5038117;28;20048;-65
2024/04/07 10:32:29;;;;;;;3.70;1.42;;;28.70;9.50;;;;;;5040394;28;20048;-66
2024/04/07 10:34:58;;;;;;;3.00;1.40;;;28.50;9.80;;;;;;5037656;28;20091;-66
2024/04/07 10:37:25;;;;;;;3.75;1.63;;;28.40;9.60;;;;;;5040374;28;20086;-66
2024/04/07 10:39:51;;;;;;;3.65;1.50;;;28.20;9.70;;;;;;5035958;28;20044;-66
2024/04/07 10:42:16;;;;;;;3.55;1.83;;;28.10;9.80;;;;;;5038265;28;20021;-66
2024/04/07 10:44:43;;;;;;;2.55;1.63;;;27.90;10.00;;;;;;5036951;28;20078;-66
2024/04/07 10:47:09;;;;;;;7.07;1.90;;;27.80;10.20;;;;;;5038250;28;20074;-66
2024/04/07 10:49:35;;;;;;;2.05;1.50;;;27.70;10.30;;;;;;5038260;28;20123;-66
2024/04/07 10:52:01;;;;;;;3.55;1.67;;;27.60;10.50;;;;;;5037919;28;20033;-65
2024/04/07 10:54:29;;;;;;;2.80;1.40;;;27.50;10.80;;;;;;5039493;28;20029;-66
2024/04/07 10:56:54;;;;;;;2.90;1.50;;;27.40;10.90;;;;;;5042209;28;20098;-66
2024/04/07 10:59:20;;;;;;;4.90;1.80;;;27.20;11.20;;;;;;5041752;28;20866;-66
2024/04/07 11:01:45;;;;;;;3.17;1.88;;;27.00;11.50;;;;;;5033004;28;20067;-66
2024/04/07 11:04:11;;;;;;;4.22;1.65;;;26.80;11.60;;;;;;5037876;28;20025;-65
2024/04/07 11:06:36;;;;;;;5.30;1.55;;;26.60;11.80;;;;;;5037377;28;20068;-62
2024/04/07 11:09:03;;;;;;;4.88;1.60;;;26.50;12.00;;;;;;5040143;28;20017;-65
2024/04/07 11:11:29;;;;;;;3.90;1.48;;;26.50;12.40;;;;;;5037130;28;20032;-66
2024/04/07 11:13:58;;;;;;;2.88;1.48;;;26.40;12.50;;;;;;5037433;28;20112;-66
2024/04/07 11:16:24;;;;;;;3.55;1.35;;;26.30;12.70;;;;;;5039066;28;20029;-66
2024/04/07 11:18:49;;;;;;;1.77;1.25;;;26.20;13.00;;;;;;5039947;28;20347;-66
2024/04/07 11:21:16;;;;;;;5.32;1.80;;;26.30;13.10;;;;;;5041353;28;20047;-65
2024/04/07 11:23:41;;;;;;;2.35;1.23;;;26.30;13.20;;;;;;5038608;28;20029;-65
2024/04/07 11:26:07;;;;;;;3.47;1.70;;;26.30;13.40;;;;;;5032847;28;20114;-66
2024/04/07 11:28:32;;;;;;;2.00;1.50;;;26.30;13.60;;;;;;5040649;28;20390;-66
2024/04/07 11:30:58;;;;;;;3.17;1.23;;;26.00;13.80;;;;;;5041378;28;20036;-66
2024/04/07 11:33:25;;;;;;;4.65;1.48;;;26.00;14.60;;;;;;5039471;28;20057;-66
2024/04/07 11:35:51;;;;;;;2.28;1.50;;;25.80;14.30;;;;;;5040322;28;20434;-66
2024/04/07 11:38:17;;;;;;;3.63;1.50;;;25.80;14.50;;;;;;5040010;28;20025;-65
2024/04/07 11:40:42;;;;;;;3.30;1.40;;;25.80;14.80;;;;;;5031256;28;20060;-66
2024/04/07 11:43:08;;;;;;;2.95;1.67;;;25.70;14.90;;;;;;5040849;28;20064;-66
2024/04/07 11:45:34;;;;;;;4.05;1.65;;;25.70;14.90;;;;;;5040431;28;20021;-66
2024/04/07 11:48:00;;;;;;;3.92;1.65;;;25.70;15.00;;;;;;5040693;28;20447;-66
2024/04/07 11:50:26;;;;;;;5.10;1.73;;;25.60;15.00;;;;;;5040743;28;20040;-66
2024/04/07 11:52:52;;;;;;;3.88;1.40;;;25.50;15.20;;;;;;5040656;28;20024;-66
2024/04/07 11:55:17;;;;;;;2.33;1.52;;;25.50;15.20;;;;;;5040533;28;20060;-65
2024/04/07 11:57:43;;;;;;;3.42;1.50;;;25.50;15.10;;;;;;5042640;28;20072;-66
2024/04/07 12:00:09;;;;;;;4.00;1.60;;;25.40;15.30;;;;;;5040558;28;20033;-66
2024/04/07 12:02:35;;;;;;;2.65;1.63;;;25.30;15.40;;;;;;5040609;28;20037;-66
2024/04/07 12:05:04;;;;;;;5.53;1.55;;;25.20;15.60;;;;;;5040740;28;20032;-66
2024/04/07 12:07:30;;;;;;;3.70;1.58;;;25.10;15.70;;;;;;5040395;28;20070;-66
2024/04/07 12:09:59;;;;;;;1.98;1.30;;;25.00;15.80;;;;;;5040345;28;20422;-66
2024/04/07 12:12:26;;;;;;;3.85;1.65;;;24.90;16.20;;;;;;5040531;28;20098;-66
2024/04/07 12:14:52;;;;;;;4.25;1.42;;;24.80;16.40;;;;;;5042040;28;20055;-66
2024/04/07 12:17:18;;;;;;;4.85;1.95;;;24.80;16.60;;;;;;5038112;28;20536;-66
2024/04/07 12:19:43;;;;;;;2.72;1.45;;;24.80;16.40;;;;;;5040652;28;20057;-66
2024/04/07 12:22:15;;;;;;;3.30;1.20;;;24.80;16.20;;;;;;5039892;28;20029;-67
2024/04/07 12:24:40;;;;;;;5.40;1.73;;;24.80;16.60;;;;;;5035012;28;20164;-66
2024/04/07 12:27:06;;;;;;;4.90;2.00;;;24.80;16.70;;;;;;5038666;28;20753;-66
2024/04/07 12:29:32;;;;;;;3.50;1.80;;;24.90;16.70;;;;;;5039732;28;20444;-66
2024/04/07 12:31:57;;;;;;;3.60;1.70;;;24.90;16.60;;;;;;5031366;28;20041;-65
2024/04/07 12:34:23;;;;;;;2.63;1.50;;;24.90;16.40;;;;;;5038079;28;20481;-66
2024/04/07 12:36:48;;;;;;;3.17;1.50;;;24.90;16.40;;;;;;5034873;28;20027;-66
2024/04/07 12:39:14;;;;;;;3.53;1.70;;;25.00;16.50;;;;;;5025818;28;20036;-66
2024/04/07 12:41:40;;;;;;;8.07;1.85;;;25.00;16.80;;;;;;5039620;28;20036;-66
2024/04/07 12:44:07;;;;;;;2.33;1.52;;;25.00;16.30;;;;;;5039446;28;20029;-66
2024/04/07 12:46:32;;;;;;;3.72;1.60;;;24.90;16.30;;;;;;5039625;28;20063;-66